In Rescue
 
Open Full Screen Window  High Contrast Mode
Wind Gusting 00 knots
10
July 01, 2022 9:20 AM EDT
Weather Information
Wind Direction
  230 °
Wind Speed
  10 kt (12 mph)
Wind Gust
  00 kt (0 mph)
Altimeter
30.02 in
Visibility
10 SM
Temperature
28° C
82° F
Dewpoint
20° C
68° F
Humidity
62%
Sky Condition
Clear
VFR

METAR KAXV 011320Z AUTO 23010KT 10SM CLR 28/20 A3002 RMK AO2 LTG DSNT SE

FAA Disclaimer: The data displayed is for advisory purposes only and is not to be used for flight planning or operations.